KPOF/POF METAR and TAF weather

Enter ICAO airport designator
Station Type Date Time Source
KPOF METAR 2019/10/22 15:53 UTC NOAA

KPOF 221553Z AUTO 27013G21KT 10SM CLR 14/02 A2999 RMK AO2 SLP157 T01390022


Station Type Date Time Source
KPOF Decoded METAR 2019/10/22 15:53 UTC NOAA

POPLAR BLUFF MUN AIRPORT, MO, United States (KPOF) 36-46N 090-19W 100M
Oct 22, 2019 - 11:53 AM EDT / 2019.10.22 1553 UTC
Wind: from the W (270 degrees) at 15 MPH (13 KT) gusting to 24 MPH (21 KT):0
Visibility: 10 mile(s):0
Sky conditions: clear
Temperature: 57.0 F (13.9 C)
Dew Point: 36.0 F (2.2 C)
Relative Humidity: 45%
Pressure (altimeter): 29.99 in. Hg (1015 hPa)
ob: KPOF 221553Z AUTO 27013G21KT 10SM CLR 14/02 A2999 RMK AO2 SLP157 T01390022
cycle: 16

Station Type Date Time Source
KPOF TAF UTC NOAA

Error!

Example: see airport list